sensor_id;sensor_type;location;lat;lon;timestamp;pressure;altitude;pressure_sealevel;temperature;humidity
71195;BME280;58908;51.426;7.714;2023-01-28T00:02:25;100967.59;;;0.43;100.00
71195;BME280;58908;51.426;7.714;2023-01-28T00:04:52;100968.44;;;0.45;100.00
71195;BME280;58908;51.426;7.714;2023-01-28T00:07:18;100964.97;;;0.46;100.00
71195;BME280;58908;51.426;7.714;2023-01-28T00:09:45;100971.03;;;0.44;100.00
71195;BME280;58908;51.426;7.714;2023-01-28T00:12:11;100972.78;;;0.43;100.00
71195;BME280;58908;51.426;7.714;2023-01-28T00:14:39;100973.63;;;0.38;100.00
71195;BME280;58908;51.426;7.714;2023-01-28T00:17:05;100975.34;;;0.42;100.00
71195;BME280;58908;51.426;7.714;2023-01-28T00:19:31;100965.84;;;0.41;100.00
71195;BME280;58908;51.426;7.714;2023-01-28T00:21:58;100970.16;;;0.36;100.00
71195;BME280;58908;51.426;7.714;2023-01-28T00:24:24;100966.69;;;0.35;100.00
71195;BME280;58908;51.426;7.714;2023-01-28T00:26:50;100959.75;;;0.34;100.00
71195;BME280;58908;51.426;7.714;2023-01-28T00:29:16;100970.16;;;0.31;100.00
71195;BME280;58908;51.426;7.714;2023-01-28T00:31:44;100973.59;;;0.30;100.00
71195;BME280;58908;51.426;7.714;2023-01-28T00:34:10;100965.81;;;0.33;100.00
71195;BME280;58908;51.426;7.714;2023-01-28T00:36:36;100967.53;;;0.33;100.00
71195;BME280;58908;51.426;7.714;2023-01-28T00:39:03;100965.81;;;0.32;100.00
71195;BME280;58908;51.426;7.714;2023-01-28T00:41:30;100968.41;;;0.32;100.00
71195;BME280;58908;51.426;7.714;2023-01-28T00:43:56;100966.69;;;0.29;100.00
71195;BME280;58908;51.426;7.714;2023-01-28T00:46:22;100964.97;;;0.28;100.00
71195;BME280;58908;51.426;7.714;2023-01-28T00:48:50;100967.50;;;0.25;100.00
71195;BME280;58908;51.426;7.714;2023-01-28T00:51:17;100964.94;;;0.27;100.00
71195;BME280;58908;51.426;7.714;2023-01-28T00:53:44;100971.84;;;0.28;100.00
71195;BME280;58908;51.426;7.714;2023-01-28T00:56:11;100969.25;;;0.26;100.00
71195;BME280;58908;51.426;7.714;2023-01-28T00:58:38;100964.94;;;0.27;100.00
71195;BME280;58908;51.426;7.714;2023-01-28T01:01:05;100975.31;;;0.24;100.00
71195;BME280;58908;51.426;7.714;2023-01-28T01:03:32;100982.22;;;0.25;100.00
71195;BME280;58908;51.426;7.714;2023-01-28T01:05:59;100975.28;;;0.22;100.00
71195;BME280;58908;51.426;7.714;2023-01-28T01:08:25;100982.22;;;0.23;100.00
71195;BME280;58908;51.426;7.714;2023-01-28T01:10:58;100983.94;;;0.24;100.00
71195;BME280;58908;51.426;7.714;2023-01-28T01:13:25;100985.66;;;0.18;100.00
71195;BME280;58908;51.426;7.714;2023-01-28T01:15:59;100982.22;;;0.23;100.00
71195;BME280;58908;51.426;7.714;2023-01-28T01:18:25;100983.06;;;0.22;100.00
71195;BME280;58908;51.426;7.714;2023-01-28T01:20:52;100984.81;;;0.23;100.00
71195;BME280;58908;51.426;7.714;2023-01-28T01:23:22;100982.22;;;0.23;100.00
71195;BME280;58908;51.426;7.714;2023-01-28T01:25:48;100970.97;;;0.18;100.00
71195;BME280;58908;51.426;7.714;2023-01-28T01:28:15;100973.56;;;0.18;100.00
71195;BME280;58908;51.426;7.714;2023-01-28T01:30:42;100971.81;;;0.16;100.00
71195;BME280;58908;51.426;7.714;2023-01-28T01:33:08;100980.47;;;0.18;100.00
71195;BME280;58908;51.426;7.714;2023-01-28T01:35:34;100979.59;;;0.16;100.00
71195;BME280;58908;51.426;7.714;2023-01-28T01:38:00;100987.41;;;0.17;100.00
71195;BME280;58908;51.426;7.714;2023-01-28T01:40:28;100979.59;;;0.19;100.00
71195;BME280;58908;51.426;7.714;2023-01-28T01:42:55;100987.41;;;0.17;100.00
71195;BME280;58908;51.426;7.714;2023-01-28T01:45:21;100982.22;;;0.17;100.00
71195;BME280;58908;51.426;7.714;2023-01-28T01:47:49;100976.97;;;0.14;100.00
71195;BME280;58908;51.426;7.714;2023-01-28T01:50:19;100983.94;;;0.17;100.00
71195;BME280;58908;51.426;7.714;2023-01-28T01:52:47;100984.75;;;0.14;100.00
71195;BME280;58908;51.426;7.714;2023-01-28T01:55:16;100986.50;;;0.17;100.00
71195;BME280;58908;51.426;7.714;2023-01-28T01:57:44;100989.13;;;0.17;100.00
71195;BME280;58908;51.426;7.714;2023-01-28T02:00:12;100982.19;;;0.14;100.00
71195;BME280;58908;51.426;7.714;2023-01-28T02:02:39;100992.53;;;0.11;100.00
71195;BME280;58908;51.426;7.714;2023-01-28T02:05:06;100993.41;;;0.10;100.00
71195;BME280;58908;51.426;7.714;2023-01-28T02:07:33;100985.59;;;0.04;100.00
71195;BME280;58908;51.426;7.714;2023-01-28T02:10:00;100983.88;;;0.08;100.00
71195;BME280;58908;51.426;7.714;2023-01-28T02:12:26;100990.81;;;0.10;100.00
71195;BME280;58908;51.426;7.714;2023-01-28T02:14:55;100991.66;;;0.08;100.00
71195;BME280;58908;51.426;7.714;2023-01-28T02:17:23;101002.03;;;0.08;100.00
71195;BME280;58908;51.426;7.714;2023-01-28T02:19:52;100999.44;;;0.06;100.00
71195;BME280;58908;51.426;7.714;2023-01-28T02:22:39;101000.31;;;0.07;100.00
71195;BME280;58908;51.426;7.714;2023-01-28T02:25:26;101004.63;;;0.06;100.00
71195;BME280;58908;51.426;7.714;2023-01-28T02:28:02;100995.94;;;0.01;100.00
71195;BME280;58908;51.426;7.714;2023-01-28T02:30:34;101002.88;;;0.01;100.00
71195;BME280;58908;51.426;7.714;2023-01-28T02:33:02;101002.88;;;0.05;100.00
71195;BME280;58908;51.426;7.714;2023-01-28T02:35:34;100999.44;;;0.05;100.00
71195;BME280;58908;51.426;7.714;2023-01-28T02:38:03;101007.22;;;0.06;100.00
71195;BME280;58908;51.426;7.714;2023-01-28T02:40:32;101013.25;;;0.04;100.00
71195;BME280;58908;51.426;7.714;2023-01-28T02:43:29;101010.66;;;0.01;100.00
71195;BME280;58908;51.426;7.714;2023-01-28T02:45:55;101008.06;;;-0.03;100.00
71195;BME280;58908;51.426;7.714;2023-01-28T02:48:39;101016.69;;;-0.02;100.00
71195;BME280;58908;51.426;7.714;2023-01-28T02:51:07;101023.63;;;-0.01;100.00
71195;BME280;58908;51.426;7.714;2023-01-28T02:53:36;101018.44;;;-0.01;100.00
71195;BME280;58908;51.426;7.714;2023-01-28T02:56:10;101014.97;;;-0.05;100.00
71195;BME280;58908;51.426;7.714;2023-01-28T02:58:41;101020.13;;;-0.04;100.00
71195;BME280;58908;51.426;7.714;2023-01-28T03:01:12;101017.53;;;-0.07;100.00
71195;BME280;58908;51.426;7.714;2023-01-28T03:03:42;101019.25;;;-0.09;100.00
71195;BME280;58908;51.426;7.714;2023-01-28T03:06:10;101012.28;;;-0.13;100.00
71195;BME280;58908;51.426;7.714;2023-01-28T03:08:38;101022.66;;;-0.13;100.00
71195;BME280;58908;51.426;7.714;2023-01-28T03:11:23;101014.91;;;-0.14;100.00
71195;BME280;58908;51.426;7.714;2023-01-28T03:14:10;101014.91;;;-0.11;100.00
71195;BME280;58908;51.426;7.714;2023-01-28T03:16:54;101013.19;;;-0.11;100.00
71195;BME280;58908;51.426;7.714;2023-01-28T03:19:40;101007.97;;;-0.15;100.00
71195;BME280;58908;51.426;7.714;2023-01-28T03:22:23;101012.28;;;-0.19;100.00
71195;BME280;58908;51.426;7.714;2023-01-28T03:25:09;101004.50;;;-0.17;100.00
71195;BME280;58908;51.426;7.714;2023-01-28T03:27:55;101015.75;;;-0.15;100.00
71195;BME280;58908;51.426;7.714;2023-01-28T03:30:44;101010.53;;;-0.18;100.00
71195;BME280;58908;51.426;7.714;2023-01-28T03:33:28;101006.22;;;-0.21;100.00
71195;BME280;58908;51.426;7.714;2023-01-28T03:36:13;100995.84;;;-0.19;100.00
71195;BME280;58908;51.426;7.714;2023-01-28T03:38:58;101002.75;;;-0.24;100.00
71195;BME280;58908;51.426;7.714;2023-01-28T03:41:25;101006.19;;;-0.24;100.00
71195;BME280;58908;51.426;7.714;2023-01-28T03:43:51;101007.09;;;-0.22;100.00
71195;BME280;58908;51.426;7.714;2023-01-28T03:46:20;101018.28;;;-0.24;100.00
71195;BME280;58908;51.426;7.714;2023-01-28T03:48:46;101020.88;;;-0.27;100.00
71195;BME280;58908;51.426;7.714;2023-01-28T03:51:12;101013.94;;;-0.28;100.00
71195;BME280;58908;51.426;7.714;2023-01-28T03:53:39;101013.06;;;-0.30;100.00
71195;BME280;58908;51.426;7.714;2023-01-28T03:56:06;101025.13;;;-0.34;100.00
71195;BME280;58908;51.426;7.714;2023-01-28T03:58:32;101022.56;;;-0.29;100.00
71195;BME280;58908;51.426;7.714;2023-01-28T04:01:10;101023.44;;;-0.30;100.00
71195;BME280;58908;51.426;7.714;2023-01-28T04:03:37;101019.09;;;-0.37;100.00
71195;BME280;58908;51.426;7.714;2023-01-28T04:06:04;101019.09;;;-0.37;100.00
71195;BME280;58908;51.426;7.714;2023-01-28T04:08:31;101015.63;;;-0.35;100.00
71195;BME280;58908;51.426;7.714;2023-01-28T04:10:58;101022.53;;;-0.38;100.00
71195;BME280;58908;51.426;7.714;2023-01-28T04:13:39;101024.25;;;-0.39;100.00
71195;BME280;58908;51.426;7.714;2023-01-28T04:16:05;101019.94;;;-0.38;100.00
71195;BME280;58908;51.426;7.714;2023-01-28T04:18:32;101029.44;;;-0.36;100.00
71195;BME280;58908;51.426;7.714;2023-01-28T04:21:00;101026.84;;;-0.39;100.00
71195;BME280;58908;51.426;7.714;2023-01-28T04:23:26;101023.34;;;-0.39;100.00
71195;BME280;58908;51.426;7.714;2023-01-28T04:25:53;101028.56;;;-0.35;100.00
71195;BME280;58908;51.426;7.714;2023-01-28T04:28:19;101028.56;;;-0.38;100.00
71195;BME280;58908;51.426;7.714;2023-01-28T04:30:46;101028.53;;;-0.39;100.00
71195;BME280;58908;51.426;7.714;2023-01-28T04:33:12;101028.59;;;-0.36;100.00
71195;BME280;58908;51.426;7.714;2023-01-28T04:35:38;101031.19;;;-0.36;100.00
71195;BME280;58908;51.426;7.714;2023-01-28T04:38:06;101040.69;;;-0.38;100.00
71195;BME280;58908;51.426;7.714;2023-01-28T04:40:32;101041.50;;;-0.44;100.00
71195;BME280;58908;51.426;7.714;2023-01-28T04:42:58;101034.56;;;-0.43;100.00
71195;BME280;58908;51.426;7.714;2023-01-28T04:45:24;101045.78;;;-0.46;100.00
71195;BME280;58908;51.426;7.714;2023-01-28T04:47:51;101038.88;;;-0.47;100.00
71195;BME280;58908;51.426;7.714;2023-01-28T04:50:17;101050.09;;;-0.49;100.00
71195;BME280;58908;51.426;7.714;2023-01-28T04:52:43;101051.81;;;-0.50;100.00
71195;BME280;58908;51.426;7.714;2023-01-28T04:55:11;101053.56;;;-0.44;100.00
71195;BME280;58908;51.426;7.714;2023-01-28T04:57:37;101053.50;;;-0.55;100.00
71195;BME280;58908;51.426;7.714;2023-01-28T05:00:04;101057.00;;;-0.48;100.00
71195;BME280;58908;51.426;7.714;2023-01-28T05:02:30;101050.09;;;-0.48;100.00
71195;BME280;58908;51.426;7.714;2023-01-28T05:04:56;101058.69;;;-0.50;100.00
71195;BME280;58908;51.426;7.714;2023-01-28T05:07:22;101053.53;;;-0.49;100.00
71195;BME280;58908;51.426;7.714;2023-01-28T05:09:49;101050.09;;;-0.48;100.00
71195;BME280;58908;51.426;7.714;2023-01-28T05:12:16;101046.59;;;-0.51;100.00
71195;BME280;58908;51.426;7.714;2023-01-28T05:14:44;101048.31;;;-0.56;100.00
71195;BME280;58908;51.426;7.714;2023-01-28T05:17:11;101051.75;;;-0.57;100.00
71195;BME280;58908;51.426;7.714;2023-01-28T05:19:37;101047.47;;;-0.52;100.00
71195;BME280;58908;51.426;7.714;2023-01-28T05:22:03;101046.59;;;-0.53;100.00
71195;BME280;58908;51.426;7.714;2023-01-28T05:24:29;101039.69;;;-0.54;100.00
71195;BME280;58908;51.426;7.714;2023-01-28T05:26:55;101047.41;;;-0.57;100.00
71195;BME280;58908;51.426;7.714;2023-01-28T05:29:23;101031.03;;;-0.54;100.00
71195;BME280;58908;51.426;7.714;2023-01-28T05:31:49;101037.06;;;-0.55;100.00
71195;BME280;58908;51.426;7.714;2023-01-28T05:34:15;101037.94;;;-0.53;100.00
71195;BME280;58908;51.426;7.714;2023-01-28T05:36:42;101040.53;;;-0.53;100.00
71195;BME280;58908;51.426;7.714;2023-01-28T05:39:08;101045.72;;;-0.53;100.00
71195;BME280;58908;51.426;7.714;2023-01-28T05:41:34;101049.16;;;-0.56;100.00
71195;BME280;58908;51.426;7.714;2023-01-28T05:44:00;101053.50;;;-0.55;100.00
71195;BME280;58908;51.426;7.714;2023-01-28T05:46:28;101060.38;;;-0.57;100.00
71195;BME280;58908;51.426;7.714;2023-01-28T05:48:54;101054.34;;;-0.57;100.00
71195;BME280;58908;51.426;7.714;2023-01-28T05:51:20;101056.03;;;-0.61;100.00
71195;BME280;58908;51.426;7.714;2023-01-28T05:53:47;101055.13;;;-0.64;100.00
71195;BME280;58908;51.426;7.714;2023-01-28T05:56:13;101061.16;;;-0.65;100.00
71195;BME280;58908;51.426;7.714;2023-01-28T05:58:39;101062.94;;;-0.60;100.00
71195;BME280;58908;51.426;7.714;2023-01-28T06:01:05;101072.47;;;-0.57;100.00
71195;BME280;58908;51.426;7.714;2023-01-28T06:03:33;101072.47;;;-0.60;100.00
71195;BME280;58908;51.426;7.714;2023-01-28T06:06:00;101085.41;;;-0.60;100.00
71195;BME280;58908;51.426;7.714;2023-01-28T06:08:26;101080.19;;;-0.63;100.00
71195;BME280;58908;51.426;7.714;2023-01-28T06:10:52;101080.19;;;-0.63;100.00
71195;BME280;58908;51.426;7.714;2023-01-28T06:13:18;101071.56;;;-0.61;100.00
71195;BME280;58908;51.426;7.714;2023-01-28T06:15:47;101066.41;;;-0.61;100.00
71195;BME280;58908;51.426;7.714;2023-01-28T06:18:13;101061.25;;;-0.59;100.00
71195;BME280;58908;51.426;7.714;2023-01-28T06:20:41;101067.28;;;-0.59;100.00
71195;BME280;58908;51.426;7.714;2023-01-28T06:23:07;101073.28;;;-0.61;100.00
71195;BME280;58908;51.426;7.714;2023-01-28T06:25:33;101069.84;;;-0.59;100.00
71195;BME280;58908;51.426;7.714;2023-01-28T06:28:00;101069.00;;;-0.59;100.00
71195;BME280;58908;51.426;7.714;2023-01-28T06:30:26;101080.22;;;-0.62;100.00
71195;BME280;58908;51.426;7.714;2023-01-28T06:32:53;101074.16;;;-0.61;100.00
71195;BME280;58908;51.426;7.714;2023-01-28T06:35:19;101075.06;;;-0.60;100.00
71195;BME280;58908;51.426;7.714;2023-01-28T06:37:47;101074.22;;;-0.56;100.00
71195;BME280;58908;51.426;7.714;2023-01-28T06:40:13;101068.97;;;-0.61;100.00
71195;BME280;58908;51.426;7.714;2023-01-28T06:42:39;101078.44;;;-0.67;100.00
71195;BME280;58908;51.426;7.714;2023-01-28T06:45:06;101079.28;;;-0.67;100.00
71195;BME280;58908;51.426;7.714;2023-01-28T06:47:32;101074.97;;;-0.69;100.00
71195;BME280;58908;51.426;7.714;2023-01-28T06:49:58;101081.88;;;-0.67;100.00
71195;BME280;58908;51.426;7.714;2023-01-28T06:52:25;101081.81;;;-0.74;100.00
71195;BME280;58908;51.426;7.714;2023-01-28T06:54:52;101084.41;;;-0.76;100.00
71195;BME280;58908;51.426;7.714;2023-01-28T06:57:18;101087.00;;;-0.74;100.00
71195;BME280;58908;51.426;7.714;2023-01-28T06:59:44;101085.25;;;-0.78;100.00
71195;BME280;58908;51.426;7.714;2023-01-28T07:02:11;101081.78;;;-0.77;100.00
71195;BME280;58908;51.426;7.714;2023-01-28T07:04:37;101086.94;;;-0.80;100.00
71195;BME280;58908;51.426;7.714;2023-01-28T07:07:03;101079.22;;;-0.76;100.00
71195;BME280;58908;51.426;7.714;2023-01-28T07:09:29;101076.59;;;-0.79;100.00
71195;BME280;58908;51.426;7.714;2023-01-28T07:11:57;101080.06;;;-0.78;100.00
71195;BME280;58908;51.426;7.714;2023-01-28T07:14:24;101079.25;;;-0.73;100.00
71195;BME280;58908;51.426;7.714;2023-01-28T07:16:50;101077.44;;;-0.80;100.00
71195;BME280;58908;51.426;7.714;2023-01-28T07:19:16;101071.44;;;-0.74;100.00
71195;BME280;58908;51.426;7.714;2023-01-28T07:21:42;101071.47;;;-0.76;100.00
71195;BME280;58908;51.426;7.714;2023-01-28T07:24:08;101064.56;;;-0.72;100.00
71195;BME280;58908;51.426;7.714;2023-01-28T07:26:35;101061.94;;;-0.77;100.00
71195;BME280;58908;51.426;7.714;2023-01-28T07:29:02;101067.09;;;-0.80;100.00
71195;BME280;58908;51.426;7.714;2023-01-28T07:31:28;101066.25;;;-0.77;100.00
71195;BME280;58908;51.426;7.714;2023-01-28T07:33:55;101070.56;;;-0.76;100.00
71195;BME280;58908;51.426;7.714;2023-01-28T07:36:21;101071.38;;;-0.85;100.00
71195;BME280;58908;51.426;7.714;2023-01-28T07:38:47;101076.53;;;-0.83;100.00
71195;BME280;58908;51.426;7.714;2023-01-28T07:41:13;101081.69;;;-0.88;100.00
71195;BME280;58908;51.426;7.714;2023-01-28T07:43:40;101075.72;;;-0.82;100.00
71195;BME280;58908;51.426;7.714;2023-01-28T07:46:07;101073.94;;;-0.88;100.00
71195;BME280;58908;51.426;7.714;2023-01-28T07:48:34;101062.75;;;-0.81;100.00
71195;BME280;58908;51.426;7.714;2023-01-28T07:51:00;101074.91;;;-0.75;100.00
71195;BME280;58908;51.426;7.714;2023-01-28T07:53:26;101084.41;;;-0.74;100.00
71195;BME280;58908;51.426;7.714;2023-01-28T07:55:57;101087.81;;;-0.80;100.00
71195;BME280;58908;51.426;7.714;2023-01-28T07:58:23;101086.94;;;-0.82;100.00
71195;BME280;58908;51.426;7.714;2023-01-28T08:00:49;101084.34;;;-0.79;100.00
71195;BME280;58908;51.426;7.714;2023-01-28T08:03:17;101086.19;;;-0.70;100.00
71195;BME280;58908;51.426;7.714;2023-01-28T08:05:43;101099.16;;;-0.67;100.00
71195;BME280;58908;51.426;7.714;2023-01-28T08:08:10;101104.38;;;-0.61;100.00
71195;BME280;58908;51.426;7.714;2023-01-28T08:10:37;101099.16;;;-0.64;100.00
71195;BME280;58908;51.426;7.714;2023-01-28T08:13:04;101090.50;;;-0.68;100.00
71195;BME280;58908;51.426;7.714;2023-01-28T08:15:31;101099.16;;;-0.67;100.00
71195;BME280;58908;51.426;7.714;2023-01-28T08:17:58;101099.13;;;-0.69;100.00
71195;BME280;58908;51.426;7.714;2023-01-28T08:20:26;101105.19;;;-0.67;100.00
71195;BME280;58908;51.426;7.714;2023-01-28T08:22:53;101115.63;;;-0.61;100.00
71195;BME280;58908;51.426;7.714;2023-01-28T08:25:19;101119.94;;;-0.63;100.00
71195;BME280;58908;51.426;7.714;2023-01-28T08:27:46;101117.31;;;-0.66;100.00
71195;BME280;58908;51.426;7.714;2023-01-28T08:30:12;101125.94;;;-0.65;100.00
71195;BME280;58908;51.426;7.714;2023-01-28T08:32:38;101138.91;;;-0.62;100.00
71195;BME280;58908;51.426;7.714;2023-01-28T08:35:05;101137.19;;;-0.62;100.00
71195;BME280;58908;51.426;7.714;2023-01-28T08:37:33;101137.25;;;-0.54;100.00
71195;BME280;58908;51.426;7.714;2023-01-28T08:39:59;101140.63;;;-0.64;100.00
71195;BME280;58908;51.426;7.714;2023-01-28T08:42:26;101142.44;;;-0.54;100.00
71195;BME280;58908;51.426;7.714;2023-01-28T08:44:52;101133.84;;;-0.52;100.00
71195;BME280;58908;51.426;7.714;2023-01-28T08:47:18;101129.47;;;-0.57;100.00
71195;BME280;58908;51.426;7.714;2023-01-28T08:49:44;101144.25;;;-0.46;100.00
71195;BME280;58908;51.426;7.714;2023-01-28T08:52:11;101144.25;;;-0.47;100.00
71195;BME280;58908;51.426;7.714;2023-01-28T08:54:38;101152.88;;;-0.48;100.00
71195;BME280;58908;51.426;7.714;2023-01-28T08:57:04;101159.84;;;-0.43;100.00
71195;BME280;58908;51.426;7.714;2023-01-28T08:59:31;101165.84;;;-0.47;100.00
71195;BME280;58908;51.426;7.714;2023-01-28T09:01:57;101171.84;;;-0.54;100.00
71195;BME280;58908;51.426;7.714;2023-01-28T09:04:23;101165.88;;;-0.44;100.00
71195;BME280;58908;51.426;7.714;2023-01-28T09:06:49;101177.97;;;-0.41;100.00
71195;BME280;58908;51.426;7.714;2023-01-28T09:09:16;101182.25;;;-0.49;100.00
71195;BME280;58908;51.426;7.714;2023-01-28T09:11:43;101192.59;;;-0.48;100.00
71195;BME280;58908;51.426;7.714;2023-01-28T09:14:10;101190.81;;;-0.53;100.00
71195;BME280;58908;51.426;7.714;2023-01-28T09:16:36;101192.56;;;-0.54;100.00
71195;BME280;58908;51.426;7.714;2023-01-28T09:19:02;101194.31;;;-0.53;100.00
71195;BME280;58908;51.426;7.714;2023-01-28T09:21:28;101202.03;;;-0.57;100.00
71195;BME280;58908;51.426;7.714;2023-01-28T09:23:54;101208.00;;;-0.61;100.00
71195;BME280;58908;51.426;7.714;2023-01-28T09:26:22;101207.19;;;-0.56;100.00
71195;BME280;58908;51.426;7.714;2023-01-28T09:28:49;101208.09;;;-0.55;100.00
71195;BME280;58908;51.426;7.714;2023-01-28T09:31:16;101203.72;;;-0.59;100.00
71195;BME280;58908;51.426;7.714;2023-01-28T09:33:42;101207.19;;;-0.60;100.00
71195;BME280;58908;51.426;7.714;2023-01-28T09:36:09;101212.41;;;-0.54;100.00
71195;BME280;58908;51.426;7.714;2023-01-28T09:38:36;101201.09;;;-0.62;100.00
71195;BME280;58908;51.426;7.714;2023-01-28T09:41:02;101208.16;;;-0.48;99.79
71195;BME280;58908;51.426;7.714;2023-01-28T09:43:52;101210.03;;;-0.33;100.00
71195;BME280;58908;51.426;7.714;2023-01-28T09:46:21;101210.94;;;-0.28;100.00
71195;BME280;58908;51.426;7.714;2023-01-28T09:48:52;101222.06;;;-0.40;100.00
71195;BME280;58908;51.426;7.714;2023-01-28T09:51:25;101223.84;;;-0.34;100.00
71195;BME280;58908;51.426;7.714;2023-01-28T09:53:54;101217.66;;;-0.50;100.00
71195;BME280;58908;51.426;7.714;2023-01-28T09:56:24;101227.19;;;-0.44;100.00
71195;BME280;58908;51.426;7.714;2023-01-28T09:58:52;101227.97;;;-0.54;100.00
71195;BME280;58908;51.426;7.714;2023-01-28T10:01:24;101231.31;;;-0.63;100.00
71195;BME280;58908;51.426;7.714;2023-01-28T10:03:57;101224.47;;;-0.56;100.00
71195;BME280;58908;51.426;7.714;2023-01-28T10:06:29;101220.03;;;-0.69;100.00
71195;BME280;58908;51.426;7.714;2023-01-28T10:09:07;101221.91;;;-0.53;100.00
71195;BME280;58908;51.426;7.714;2023-01-28T10:11:41;101231.53;;;-0.43;100.00
71195;BME280;58908;51.426;7.714;2023-01-28T10:14:12;101228.09;;;-0.39;100.00
71195;BME280;58908;51.426;7.714;2023-01-28T10:16:42;101229.88;;;-0.35;100.00
71195;BME280;58908;51.426;7.714;2023-01-28T10:19:13;101228.16;;;-0.35;100.00
71195;BME280;58908;51.426;7.714;2023-01-28T10:21:42;101214.97;;;-0.56;99.28
71195;BME280;58908;51.426;7.714;2023-01-28T10:24:14;101218.41;;;-0.60;99.18
71195;BME280;58908;51.426;7.714;2023-01-28T10:26:42;101214.97;;;-0.56;100.00
71195;BME280;58908;51.426;7.714;2023-01-28T10:29:12;101203.88;;;-0.44;99.71
71195;BME280;58908;51.426;7.714;2023-01-28T10:31:40;101199.69;;;-0.30;99.95
71195;BME280;58908;51.426;7.714;2023-01-28T10:34:09;101203.28;;;-0.18;100.00
71195;BME280;58908;51.426;7.714;2023-01-28T10:36:36;101196.41;;;-0.14;100.00
71195;BME280;58908;51.426;7.714;2023-01-28T10:39:02;101194.66;;;-0.15;99.19
71195;BME280;58908;51.426;7.714;2023-01-28T10:41:30;101196.50;;;-0.03;100.00
71195;BME280;58908;51.426;7.714;2023-01-28T10:43:57;101201.50;;;-0.22;99.10
71195;BME280;58908;51.426;7.714;2023-01-28T10:46:25;101192.81;;;-0.27;98.19
71195;BME280;58908;51.426;7.714;2023-01-28T10:48:54;101204.19;;;-0.11;98.69
71195;BME280;58908;51.426;7.714;2023-01-28T10:51:29;101202.34;;;-0.23;97.20
71195;BME280;58908;51.426;7.714;2023-01-28T10:53:55;101199.75;;;-0.23;97.93
71195;BME280;58908;51.426;7.714;2023-01-28T10:56:22;101202.44;;;-0.12;96.83
71195;BME280;58908;51.426;7.714;2023-01-28T10:58:53;101204.97;;;-0.18;96.45
71195;BME280;58908;51.426;7.714;2023-01-28T11:01:22;101202.25;;;-0.33;97.07
71195;BME280;58908;51.426;7.714;2023-01-28T11:03:53;101207.66;;;-0.11;97.28
71195;BME280;58908;51.426;7.714;2023-01-28T11:06:24;101210.28;;;-0.08;97.01
71195;BME280;58908;51.426;7.714;2023-01-28T11:08:50;101211.03;;;-0.21;96.85
71195;BME280;58908;51.426;7.714;2023-01-28T11:11:21;101206.75;;;-0.13;97.51
71195;BME280;58908;51.426;7.714;2023-01-28T11:13:49;101205.97;;;-0.03;97.80
71195;BME280;58908;51.426;7.714;2023-01-28T11:16:17;101219.84;;;0.00;97.79
71195;BME280;58908;51.426;7.714;2023-01-28T11:18:45;101217.22;;;-0.04;97.36
71195;BME280;58908;51.426;7.714;2023-01-28T11:21:15;101220.72;;;0.01;98.17
71195;BME280;58908;51.426;7.714;2023-01-28T11:23:46;101216.28;;;-0.10;96.64
71195;BME280;58908;51.426;7.714;2023-01-28T11:26:14;101218.84;;;-0.15;96.16
71195;BME280;58908;51.426;7.714;2023-01-28T11:28:43;101231.81;;;-0.16;96.60
71195;BME280;58908;51.426;7.714;2023-01-28T11:31:09;101228.38;;;-0.12;96.98
71195;BME280;58908;51.426;7.714;2023-01-28T11:33:38;101233.44;;;-0.27;97.56
71195;BME280;58908;51.426;7.714;2023-01-28T11:36:06;101235.84;;;-0.42;95.89
71195;BME280;58908;51.426;7.714;2023-01-28T11:38:34;101223.81;;;-0.36;96.91
71195;BME280;58908;51.426;7.714;2023-01-28T11:41:00;101219.50;;;-0.38;97.09
71195;BME280;58908;51.426;7.714;2023-01-28T11:43:27;101223.78;;;-0.42;96.52
71195;BME280;58908;51.426;7.714;2023-01-28T11:45:55;101222.97;;;-0.35;96.38
71195;BME280;58908;51.426;7.714;2023-01-28T11:48:28;101228.25;;;-0.26;96.12
71195;BME280;58908;51.426;7.714;2023-01-28T11:50:59;101222.28;;;-0.17;95.92
71195;BME280;58908;51.426;7.714;2023-01-28T11:53:40;101214.50;;;-0.17;96.45
71195;BME280;58908;51.426;7.714;2023-01-28T11:58:53;101217.94;;;-0.18;96.41
71195;BME280;58908;51.426;7.714;2023-01-28T12:01:23;101217.91;;;-0.24;96.89
71195;BME280;58908;51.426;7.714;2023-01-28T12:04:01;101209.13;;;-0.38;95.18
71195;BME280;58908;51.426;7.714;2023-01-28T12:06:37;101206.69;;;-0.23;95.66
71195;BME280;58908;51.426;7.714;2023-01-28T12:09:11;101194.41;;;-0.44;94.16
71195;BME280;58908;51.426;7.714;2023-01-28T12:11:42;101194.41;;;-0.39;93.18
71195;BME280;58908;51.426;7.714;2023-01-28T12:14:33;101195.22;;;-0.45;93.49
71195;BME280;58908;51.426;7.714;2023-01-28T12:17:07;101198.81;;;-0.29;93.82
71195;BME280;58908;51.426;7.714;2023-01-28T12:19:45;101190.94;;;-0.43;92.30
71195;BME280;58908;51.426;7.714;2023-01-28T12:22:23;101187.50;;;-0.40;93.05
71195;BME280;58908;51.426;7.714;2023-01-28T12:24:56;101201.34;;;-0.40;91.81
71195;BME280;58908;51.426;7.714;2023-01-28T12:27:31;101196.22;;;-0.29;92.92
71195;BME280;58908;51.426;7.714;2023-01-28T12:30:04;101193.75;;;-0.22;91.90
71195;BME280;58908;51.426;7.714;2023-01-28T12:32:37;101195.44;;;-0.22;92.02
71195;BME280;58908;51.426;7.714;2023-01-28T12:35:13;101182.44;;;-0.30;92.23
71195;BME280;58908;51.426;7.714;2023-01-28T12:37:46;101163.44;;;-0.26;91.59
71195;BME280;58908;51.426;7.714;2023-01-28T12:40:36;101166.13;;;-0.17;90.98
71195;BME280;58908;51.426;7.714;2023-01-28T12:43:09;101162.53;;;-0.29;91.24
71195;BME280;58908;51.426;7.714;2023-01-28T12:45:37;101141.13;;;-0.09;91.61
71195;BME280;58908;51.426;7.714;2023-01-28T12:48:07;101128.06;;;-0.19;89.93
71195;BME280;58908;51.426;7.714;2023-01-28T12:50:36;101127.16;;;-0.24;89.69
71195;BME280;58908;51.426;7.714;2023-01-28T12:53:11;101134.13;;;-0.22;89.51
71195;BME280;58908;51.426;7.714;2023-01-28T12:55:44;101135.75;;;-0.28;88.88